Morell, Canada
Current Conditions -  °F | °C
As of 5:00 PM on Wednesday 17 Dec 2014 (Local Time) from CYYG Reporting Station
Overcast Overcast  
Wind Chill: 26°   Ceiling: 1700
Heat Index: 32°   Visibility: 15mi
Dew Point: 28°   Wind: 6mph
Humidity: 87%   Direction: 80°E
Pressure: 29.94"   Gusts: NA
Location:  46.42°N, 62.7°W
Report Text: CYYG 172100Z 08005KT 15SM OVC017 M00/M02 A2994 RMK SC8 SLP141
Loading
Personal Weather Stations






























Interactive Weather Map New forecast layout! Learn more

10-Day Weather Forecast

Advertisements
Track Severe Weather on mobile